Terminal Aerodrome Forecast
Issued by NWS

Home | Current Version | Previous Version | Text Only | Print | Product List | Glossary On
Versions: 1 2 3 4 5 6 7 8 9 10 11 12 13 14 15 16 17 18 19 20 21 22 23 24 25 26 27 28 29 30 31 32 33 34
570
FTUS44 KLIX 251451 AAA
TAFHUM
TAF AMD
KHUM 251451Z 2515/2612 09006KT P6SM VCTS SCT030CB OVC090
     FM260000 14007KT P6SM SCT020 BKN100
     FM260800 VRB03KT P6SM SCT020 BKN150=

USA.gov is the U.S. government's official web portal to all federal, state and local government web resources and services.